Time;durP1;ratioP1;P1;durP2;ratioP2;P2;SDS_P1;SDS_P2;PMS_P1;PMS_P2;Temp;Humidity;BMP_temperature;BMP_pressure;BME280_temperature;BME280_humidity;BME280_pressure;Samples;Min_cycle;Max_cycle;Signal;HPM_P1;HPM_P2
2021/07/26 00:02:17;;;;;;;4.30;2.70;;;17.10;99.90;;;18.08;100.00;97605.66;5019132;28;20532;-84
2021/07/26 00:04:46;;;;;;;9.33;2.73;;;17.10;99.90;;;18.06;100.00;97601.69;5024319;28;20468;-83
2021/07/26 00:07:16;;;;;;;3.40;2.33;;;17.10;99.90;;;18.07;100.00;97598.81;5025110;28;20518;-84
2021/07/26 00:09:44;;;;;;;5.73;2.53;;;17.10;99.90;;;18.08;100.00;97596.97;5020112;28;20494;-83
2021/07/26 00:12:13;;;;;;;3.70;2.30;;;17.10;99.90;;;18.10;100.00;97595.66;5017464;28;20525;-83
2021/07/26 00:14:41;;;;;;;3.43;2.40;;;17.10;99.90;;;18.11;100.00;97596.47;5027731;28;20473;-83
2021/07/26 00:17:10;;;;;;;3.97;2.27;;;17.10;99.90;;;17.97;100.00;97593.38;5016084;28;20462;-83
2021/07/26 00:19:38;;;;;;;10.83;2.67;;;17.00;99.90;;;17.88;100.00;97601.97;5025484;28;20482;-83
2021/07/26 00:22:07;;;;;;;7.10;2.43;;;16.80;99.90;;;17.83;100.00;97604.56;5029059;28;20458;-83
2021/07/26 00:24:37;;;;;;;3.57;2.30;;;16.70;99.90;;;17.79;100.00;97603.44;5028256;28;20485;-83
2021/07/26 00:27:06;;;;;;;4.50;2.40;;;16.70;99.90;;;17.77;100.00;97602.88;5028067;28;20497;-83
2021/07/26 00:29:34;;;;;;;3.37;2.60;;;16.60;99.90;;;17.74;100.00;97603.34;5025688;28;20547;-83
2021/07/26 00:32:02;;;;;;;3.83;2.30;;;16.60;99.90;;;17.70;100.00;97596.97;5026359;28;20989;-83
2021/07/26 00:34:31;;;;;;;11.07;2.50;;;16.60;99.90;;;17.67;100.00;97600.88;5022110;28;20457;-83
2021/07/26 00:37:01;;;;;;;3.43;2.37;;;16.50;99.90;;;17.67;100.00;97597.47;5025303;28;20469;-83
2021/07/26 00:39:32;;;;;;;4.30;2.73;;;16.60;99.90;;;17.71;100.00;97603.84;5025305;28;20462;-83
2021/07/26 00:42:04;;;;;;;5.47;2.40;;;16.70;99.90;;;17.59;100.00;97599.47;5024285;28;20466;-83
2021/07/26 00:44:35;;;;;;;5.10;2.90;;;16.50;99.90;;;17.63;100.00;97593.69;5024460;28;20532;-83
2021/07/26 00:47:04;;;;;;;6.23;2.40;;;16.50;99.90;;;17.69;100.00;97605.94;5027007;28;20532;-83
2021/07/26 00:49:32;;;;;;;6.93;3.30;;;16.50;99.90;;;17.58;100.00;97605.78;5019062;28;20496;-84
2021/07/26 00:52:02;;;;;;;7.03;2.80;;;16.40;99.90;;;17.53;100.00;97595.09;5025925;28;20450;-83
2021/07/26 00:54:36;;;;;;;12.60;2.50;;;16.30;99.90;;;17.52;100.00;97598.81;5024126;28;20461;-83
2021/07/26 00:57:08;;;;;;;3.47;2.70;;;16.40;99.90;;;17.48;100.00;97597.69;5026396;28;20462;-83
2021/07/26 00:59:38;;;;;;;4.00;2.63;;;16.40;99.90;;;17.46;100.00;97599.75;5024844;28;20462;-83
2021/07/26 01:02:06;;;;;;;5.50;2.80;;;16.40;99.90;;;17.51;100.00;97599.84;5023594;28;20474;-83
2021/07/26 01:04:35;;;;;;;4.70;2.50;;;16.50;99.90;;;17.54;100.00;97607.28;5018759;28;20462;-83
2021/07/26 01:07:05;;;;;;;2.83;2.37;;;16.50;99.90;;;17.43;100.00;97613.47;5020349;28;20462;-83
2021/07/26 01:09:34;;;;;;;6.30;2.33;;;16.30;99.90;;;17.43;100.00;97610.00;5022183;28;20463;-83
2021/07/26 01:12:03;;;;;;;18.43;2.70;;;16.40;99.90;;;17.42;100.00;97611.84;5020183;28;20459;-83
2021/07/26 01:14:34;;;;;;;2.60;2.00;;;16.40;99.90;;;17.50;100.00;97608.81;5023638;28;20446;-83
2021/07/26 01:17:03;;;;;;;6.80;2.67;;;16.50;99.90;;;17.56;100.00;97607.88;5024964;28;20466;-83
2021/07/26 01:19:31;;;;;;;6.00;2.43;;;16.70;99.90;;;17.56;100.00;97607.09;5024593;28;20974;-83
2021/07/26 01:22:01;;;;;;;4.00;2.30;;;16.70;99.90;;;17.44;100.00;97607.13;5022573;28;20470;-83
2021/07/26 01:24:30;;;;;;;8.23;2.70;;;16.50;99.90;;;17.43;100.00;97605.53;5030853;28;20888;-83
2021/07/26 01:26:58;;;;;;;8.00;2.17;;;16.40;99.90;;;17.43;100.00;97607.38;5021039;28;20469;-83
2021/07/26 01:29:27;;;;;;;6.63;2.83;;;16.40;99.90;;;17.37;100.00;97611.78;5021435;28;20541;-83
2021/07/26 01:31:55;;;;;;;5.10;2.80;;;16.40;99.90;;;17.39;100.00;97620.25;5023556;28;20608;-83
2021/07/26 01:34:24;;;;;;;8.03;2.73;;;16.40;99.90;;;17.32;100.00;97611.69;5024226;28;20497;-83
2021/07/26 01:36:52;;;;;;;4.30;3.00;;;16.30;99.90;;;17.33;100.00;97615.13;5026946;28;20443;-83
2021/07/26 01:39:22;;;;;;;6.60;2.70;;;16.30;99.90;;;17.27;100.00;97616.91;5028039;28;20536;-83
2021/07/26 01:41:54;;;;;;;2.93;2.57;;;16.20;99.90;;;17.30;100.00;97619.06;5017713;28;20478;-83
2021/07/26 01:44:23;;;;;;;2.87;2.30;;;16.30;99.90;;;17.28;100.00;97623.00;5025480;28;20458;-83
2021/07/26 01:47:03;;;;;;;5.93;2.70;;;16.30;99.90;;;17.21;100.00;97623.16;5021538;28;20493;-83
2021/07/26 01:49:56;;;;;;;3.00;2.37;;;16.30;99.90;;;17.21;100.00;97625.00;5019035;28;20465;-83
2021/07/26 01:52:25;;;;;;;3.50;2.17;;;16.20;99.90;;;17.23;100.00;97630.84;5019987;28;20815;-83
2021/07/26 01:54:56;;;;;;;2.57;2.20;;;16.20;99.90;;;17.26;100.00;97628.50;5024800;28;20466;-83
2021/07/26 01:57:25;;;;;;;4.03;2.80;;;16.20;99.90;;;17.28;100.00;97626.44;5019350;28;20525;-83
2021/07/26 01:59:54;;;;;;;3.17;2.50;;;16.30;99.90;;;17.33;100.00;97628.34;5018348;28;20486;-83
2021/07/26 02:02:23;;;;;;;4.27;2.50;;;16.30;99.90;;;17.36;100.00;97630.50;5023846;28;20662;-83
2021/07/26 02:04:52;;;;;;;8.37;2.50;;;16.40;99.90;;;17.23;100.00;97636.13;5025519;28;20458;-83
2021/07/26 02:07:21;;;;;;;4.63;2.43;;;16.20;99.90;;;17.04;100.00;97632.91;5025969;28;20461;-83
2021/07/26 02:09:49;;;;;;;2.40;2.17;;;16.00;99.90;;;17.08;100.00;97636.66;5021287;28;20458;-84
2021/07/26 02:12:19;;;;;;;5.67;1.97;;;16.00;99.90;;;17.05;100.00;97634.50;5019183;28;20501;-83
2021/07/26 02:14:48;;;;;;;2.10;1.90;;;15.90;99.90;;;17.11;100.00;97633.56;5026779;28;20802;-83
2021/07/26 02:17:17;;;;;;;2.43;2.23;;;16.00;99.90;;;17.08;100.00;97636.66;5022855;28;21028;-84
2021/07/26 02:19:45;;;;;;;3.63;2.30;;;16.10;99.90;;;17.04;100.00;97638.19;5019378;28;20522;-83
2021/07/26 02:22:14;;;;;;;2.20;2.00;;;16.10;99.90;;;17.00;100.00;97637.88;5021911;28;20511;-83
2021/07/26 02:24:42;;;;;;;2.40;2.20;;;16.10;99.90;;;17.01;100.00;97641.28;5023954;28;20469;-83
2021/07/26 02:27:11;;;;;;;4.40;2.40;;;16.00;99.90;;;17.02;100.00;97640.25;5023090;28;20473;-83
2021/07/26 02:29:41;;;;;;;7.27;2.60;;;16.00;99.90;;;17.02;100.00;97638.44;5028196;28;20454;-83
2021/07/26 02:32:10;;;;;;;4.53;2.53;;;16.00;99.90;;;17.05;100.00;97642.41;5021674;28;20529;-83
2021/07/26 02:34:38;;;;;;;2.70;2.30;;;16.00;99.90;;;17.08;100.00;97636.66;5016364;28;20521;-83
2021/07/26 02:37:07;;;;;;;3.60;2.00;;;16.10;99.90;;;17.03;100.00;97636.59;5020839;28;20470;-83
2021/07/26 02:39:35;;;;;;;9.53;2.90;;;16.00;99.90;;;16.95;100.00;97639.59;5019540;28;20451;-83
2021/07/26 02:42:05;;;;;;;3.10;2.03;;;16.00;99.90;;;16.92;100.00;97640.88;5017211;28;21025;-83
2021/07/26 02:44:33;;;;;;;5.57;2.07;;;15.90;99.90;;;16.90;100.00;97644.81;5024676;28;20876;-83
2021/07/26 02:47:03;;;;;;;4.13;1.80;;;15.90;99.90;;;16.88;100.00;97644.22;5018347;28;20474;-83
2021/07/26 02:49:32;;;;;;;3.20;2.10;;;15.80;99.90;;;16.90;100.00;97658.03;5027598;28;20860;-84
2021/07/26 02:52:00;;;;;;;2.30;2.00;;;15.80;99.90;;;16.87;100.00;97656.63;5026883;28;20551;-83
2021/07/26 02:54:29;;;;;;;11.27;1.80;;;15.80;99.90;;;16.86;100.00;97646.31;5023446;28;20876;-84
2021/07/26 02:56:57;;;;;;;2.70;1.93;;;15.80;99.90;;;16.90;100.00;97650.09;5027595;28;20458;-83
2021/07/26 02:59:26;;;;;;;3.13;1.97;;;15.80;99.90;;;16.91;100.00;97649.84;5026709;28;20465;-83
2021/07/26 03:01:54;;;;;;;5.80;2.33;;;15.90;99.90;;;16.86;100.00;97662.16;5021123;28;20462;-83
2021/07/26 03:04:24;;;;;;;2.33;1.83;;;15.80;99.90;;;16.83;100.00;97652.09;5020241;28;20712;-83
2021/07/26 03:06:52;;;;;;;5.83;2.87;;;15.80;99.90;;;16.87;100.00;97658.50;5023342;28;20465;-83
2021/07/26 03:09:21;;;;;;;5.10;2.50;;;15.90;99.90;;;16.85;100.00;97655.28;5029165;28;20442;-83
2021/07/26 03:11:51;;;;;;;3.30;2.50;;;15.80;99.90;;;16.84;100.00;97653.66;5019875;28;20939;-83
2021/07/26 03:14:19;;;;;;;3.10;2.60;;;15.80;99.90;;;16.86;100.00;97655.06;5027236;28;20470;-83
2021/07/26 03:16:48;;;;;;;5.33;3.17;;;15.80;99.90;;;16.85;100.00;97657.91;5018815;28;20450;-83
2021/07/26 03:19:16;;;;;;;10.93;2.80;;;15.80;99.90;;;16.86;100.00;97652.41;5022052;28;20493;-83
2021/07/26 03:21:46;;;;;;;4.97;3.10;;;15.80;99.90;;;16.86;100.00;97662.97;5026394;28;20466;-83
2021/07/26 03:24:14;;;;;;;6.33;2.80;;;15.80;99.90;;;16.86;100.00;97657.69;5025751;28;20458;-83
2021/07/26 03:26:43;;;;;;;6.40;2.40;;;16.00;99.90;;;16.87;100.00;97666.41;5026055;28;20490;-83
2021/07/26 03:29:11;;;;;;;2.70;1.90;;;15.90;99.90;;;16.90;100.00;97668.59;5024013;28;20979;-83
2021/07/26 03:31:40;;;;;;;2.30;2.10;;;15.90;99.90;;;16.88;100.00;97675.94;5031525;28;20487;-83
2021/07/26 03:34:09;;;;;;;2.30;2.10;;;15.90;99.90;;;16.86;100.00;97675.38;5024742;28;20466;-83
2021/07/26 03:36:37;;;;;;;6.40;2.73;;;15.80;99.90;;;16.87;100.00;97674.34;5020093;28;20473;-83
2021/07/26 03:39:07;;;;;;;16.27;2.90;;;15.90;99.90;;;16.84;100.00;97672.16;5023786;28;20521;-83
2021/07/26 03:41:35;;;;;;;53.60;3.70;;;15.90;99.90;;;16.77;100.00;97674.94;5017152;28;20558;-83
2021/07/26 03:44:04;;;;;;;28.43;8.30;;;15.90;99.90;;;16.77;100.00;97680.22;5022154;28;20469;-86
2021/07/26 03:46:33;;;;;;;11.47;3.00;;;15.80;99.90;;;16.82;100.00;97679.53;5022989;28;20489;-83
2021/07/26 03:49:01;;;;;;;20.27;3.03;;;15.80;99.90;;;16.77;100.00;97679.41;5021168;28;20473;-84
2021/07/26 03:51:30;;;;;;;22.03;2.43;;;15.70;99.90;;;16.72;100.00;97687.25;5023824;28;20502;-84
2021/07/26 03:53:58;;;;;;;6.33;2.83;;;15.60;99.90;;;16.74;100.00;97687.81;5027614;28;20963;-84
2021/07/26 03:56:28;;;;;;;15.67;2.80;;;15.70;99.90;;;16.74;100.00;97679.88;5023629;28;20442;-83
2021/07/26 03:58:56;;;;;;;6.63;2.50;;;15.70;99.90;;;16.74;100.00;97679.88;5027278;28;20447;-83
2021/07/26 04:01:25;;;;;;;7.00;2.37;;;15.70;99.90;;;16.75;100.00;97681.50;5024536;28;20540;-83
2021/07/26 04:03:53;;;;;;;3.33;2.17;;;15.70;99.90;;;16.76;100.00;97683.09;5028960;28;20521;-83
2021/07/26 04:06:22;;;;;;;13.20;2.40;;;15.70;99.90;;;16.72;100.00;97681.97;5024411;28;20477;-84
2021/07/26 04:08:52;;;;;;;13.20;2.03;;;15.70;99.90;;;16.73;100.00;97687.00;5018596;28;20459;-83
2021/07/26 04:11:22;;;;;;;12.60;2.53;;;15.60;99.90;;;16.72;100.00;97685.41;5025936;28;20524;-85
2021/07/26 04:13:55;;;;;;;8.93;2.43;;;15.60;99.90;;;16.69;100.00;97677.97;5026947;28;20943;-84
2021/07/26 04:16:24;;;;;;;11.70;2.33;;;15.60;99.90;;;16.64;100.00;97682.34;5027844;28;20453;-84
2021/07/26 04:18:53;;;;;;;16.00;3.30;;;15.60;99.90;;;16.64;100.00;97687.59;5027369;28;20494;-84
2021/07/26 04:21:30;;;;;;;7.93;2.60;;;15.60;99.90;;;16.63;100.00;97683.34;5027652;28;20446;-83
2021/07/26 04:23:59;;;;;;;18.57;2.90;;;15.80;99.90;;;16.50;100.00;97674.66;5029753;28;20450;-83
2021/07/26 04:26:29;;;;;;;4.53;2.43;;;15.80;99.90;;;16.49;100.00;97680.16;5030052;28;20810;-83
2021/07/26 04:28:59;;;;;;;8.77;2.33;;;15.60;99.90;;;16.51;100.00;97678.09;5029782;28;20873;-83
2021/07/26 04:31:27;;;;;;;2.00;1.80;;;15.70;99.90;;;16.49;100.00;97678.31;5019461;28;20451;-83
2021/07/26 04:33:55;;;;;;;3.03;2.47;;;15.60;99.90;;;16.48;100.00;97679.38;5028260;28;20446;-84
2021/07/26 04:36:24;;;;;;;2.60;2.20;;;15.50;99.90;;;16.48;100.00;97674.09;5027113;28;20449;-84
2021/07/26 04:38:52;;;;;;;24.27;2.90;;;15.50;99.90;;;16.43;100.00;97668.69;5022570;28;20458;-83
2021/07/26 04:41:21;;;;;;;6.10;2.20;;;15.70;99.90;;;16.33;100.00;97683.53;5023069;28;20463;-83
2021/07/26 04:43:49;;;;;;;16.50;3.40;;;15.70;99.90;;;16.22;100.00;97682.50;5025076;28;20458;-83
2021/07/26 04:46:19;;;;;;;4.43;2.10;;;15.70;99.90;;;16.16;100.00;97677.34;5025110;28;20477;-83
2021/07/26 04:48:48;;;;;;;11.57;3.10;;;15.70;99.90;;;16.16;100.00;97683.44;5029075;28;20453;-83
2021/07/26 04:51:16;;;;;;;4.93;2.23;;;15.60;99.90;;;16.18;100.00;97670.81;5021370;28;20849;-83
2021/07/26 04:53:45;;;;;;;2.67;2.40;;;15.50;99.90;;;16.19;100.00;97682.97;5033680;28;20502;-82
2021/07/26 04:56:13;;;;;;;2.97;2.23;;;15.30;99.90;;;16.19;100.00;97688.25;5023095;28;20446;-83
2021/07/26 04:58:42;;;;;;;10.40;2.33;;;15.30;99.90;;;16.23;100.00;97689.41;5025402;28;20458;-82
2021/07/26 05:01:10;;;;;;;3.10;2.40;;;15.30;99.90;;;16.24;100.00;97692.84;5024007;28;20497;-82
2021/07/26 05:03:40;;;;;;;2.70;2.10;;;15.30;99.90;;;16.24;100.00;97698.13;5028960;28;20835;-83
2021/07/26 05:06:09;;;;;;;2.23;1.90;;;15.20;99.90;;;16.26;100.00;97694.22;5021925;28;20523;-82
2021/07/26 05:08:38;;;;;;;4.40;2.40;;;15.40;99.90;;;16.30;100.00;97689.28;5025981;28;20461;-82
2021/07/26 05:11:06;;;;;;;6.10;2.30;;;15.40;99.90;;;16.26;100.00;97686.28;5025207;28;20470;-82
2021/07/26 05:13:35;;;;;;;2.03;1.63;;;15.30;99.90;;;16.29;100.00;97693.75;5023589;28;20493;-82
2021/07/26 05:16:04;;;;;;;3.67;2.23;;;15.30;99.90;;;16.33;100.00;97689.59;5023869;28;20518;-83
2021/07/26 05:18:33;;;;;;;4.40;3.63;;;15.40;99.90;;;16.36;100.00;97694.41;5019133;28;20490;-82
2021/07/26 05:21:03;;;;;;;3.40;2.60;;;15.40;99.90;;;16.33;100.00;97689.59;5024396;28;20496;-82
2021/07/26 05:23:31;;;;;;;2.20;2.00;;;15.30;99.90;;;16.24;100.00;97685.72;5018418;28;20516;-82
2021/07/26 05:26:00;;;;;;;2.90;2.30;;;15.30;99.90;;;16.31;100.00;97696.16;5028461;28;20470;-82
2021/07/26 05:28:28;;;;;;;2.23;1.97;;;15.30;99.90;;;16.21;100.00;97688.81;5021591;28;20457;-82
2021/07/26 05:30:57;;;;;;;3.60;2.23;;;15.20;99.90;;;16.24;100.00;97691.00;5019015;28;20455;-82
2021/07/26 05:33:27;;;;;;;2.10;1.73;;;15.30;99.90;;;16.35;100.00;97687.53;5023606;28;20566;-82
2021/07/26 05:35:55;;;;;;;2.43;2.00;;;15.40;99.90;;;16.44;100.00;97686.16;5024212;28;20442;-81
2021/07/26 05:38:25;;;;;;;3.40;2.27;;;15.50;99.90;;;16.50;100.00;97689.69;5018722;28;20486;-77
2021/07/26 05:40:54;;;;;;;49.13;29.93;;;15.50;99.90;;;16.58;100.00;97692.81;5022549;28;20477;-81
2021/07/26 05:43:24;;;;;;;4.40;2.47;;;15.60;99.90;;;16.64;100.00;97695.53;5019910;28;20477;-81
2021/07/26 05:45:52;;;;;;;6.43;2.80;;;15.70;99.90;;;16.70;100.00;97694.59;5023459;28;20966;-81
2021/07/26 05:48:29;;;;;;;10.80;2.50;;;15.70;99.90;;;16.73;100.00;97699.44;5018969;28;20536;-82
2021/07/26 05:51:15;;;;;;;7.20;2.70;;;15.80;99.90;;;16.76;100.00;97712.16;5032487;28;20449;-82
2021/07/26 05:53:46;;;;;;;15.90;2.47;;;15.80;99.90;;;16.79;100.00;97707.22;5030614;28;21012;-82
2021/07/26 05:56:14;;;;;;;3.57;2.60;;;15.90;99.90;;;16.80;100.00;97710.66;5025809;28;20466;-82
2021/07/26 05:58:45;;;;;;;3.80;2.70;;;15.90;99.90;;;16.79;100.00;97715.13;5029436;28;20449;-82
2021/07/26 06:01:35;;;;;;;6.93;2.60;;;15.90;99.90;;;16.80;100.00;97708.00;5034176;28;20574;-82
2021/07/26 06:04:04;;;;;;;9.03;2.40;;;15.90;99.90;;;16.81;100.00;97706.97;5025488;28;20459;-82
2021/07/26 06:06:34;;;;;;;5.17;2.70;;;15.90;99.90;;;16.87;100.00;97709.47;5026089;28;20581;-82
2021/07/26 06:09:04;;;;;;;3.33;2.67;;;16.00;99.90;;;16.88;100.00;97702.34;5027589;28;20499;-81
2021/07/26 06:11:33;;;;;;;5.17;2.30;;;16.00;99.90;;;16.90;100.00;97705.56;5028380;28;20874;-82
2021/07/26 06:14:01;;;;;;;6.37;2.43;;;16.00;99.90;;;16.85;100.00;97700.19;5024828;28;21096;-82
2021/07/26 06:16:30;;;;;;;3.80;2.50;;;16.00;99.90;;;16.90;100.00;97701.06;5029791;28;20473;-82
2021/07/26 06:19:00;;;;;;;4.17;2.70;;;16.00;99.90;;;16.97;100.00;97700.94;5024806;28;20878;-82
2021/07/26 06:21:28;;;;;;;3.20;2.40;;;16.00;99.90;;;17.03;100.00;97705.28;5028053;28;20503;-82
2021/07/26 06:23:57;;;;;;;4.90;2.70;;;16.10;99.90;;;17.12;100.00;97698.56;5028550;28;20870;-82
2021/07/26 06:26:26;;;;;;;2.73;2.30;;;16.20;99.90;;;17.18;100.00;97702.91;5026293;28;20950;-82
2021/07/26 06:28:55;;;;;;;3.10;2.80;;;16.30;99.90;;;17.28;100.00;97703.09;5028294;28;20460;-82
2021/07/26 06:31:27;;;;;;;18.97;3.03;;;16.40;99.90;;;17.36;100.00;97694.75;5025638;28;20495;-83
2021/07/26 06:33:55;;;;;;;10.20;3.33;;;16.50;99.90;;;17.44;100.00;97696.22;5034928;28;21103;-82
2021/07/26 06:36:23;;;;;;;8.20;3.07;;;16.60;99.90;;;17.49;100.00;97698.97;5028614;28;20443;-82
2021/07/26 06:38:52;;;;;;;3.90;2.83;;;16.60;99.90;;;17.56;100.00;97703.06;5022334;28;21021;-82
2021/07/26 06:41:21;;;;;;;6.33;3.30;;;16.80;99.90;;;17.64;100.00;97706.34;5029192;28;20500;-82
2021/07/26 06:43:52;;;;;;;7.40;3.10;;;16.90;99.90;;;17.71;100.00;97707.78;5027515;28;20446;-82
2021/07/26 06:46:21;;;;;;;6.50;3.60;;;17.00;99.90;;;17.77;100.00;97706.06;5026562;28;20519;-82
2021/07/26 06:48:50;;;;;;;10.70;3.10;;;17.00;99.90;;;17.83;100.00;97707.72;5030936;28;20951;-82
2021/07/26 06:51:19;;;;;;;5.03;2.57;;;17.10;99.90;;;17.86;100.00;97700.09;5036727;28;20441;-82
2021/07/26 06:53:47;;;;;;;4.47;3.27;;;17.10;99.90;;;17.91;100.00;97712.63;5035308;28;20551;-82
2021/07/26 06:56:16;;;;;;;3.20;2.90;;;17.20;99.90;;;17.95;100.00;97708.41;5032057;28;20442;-82
2021/07/26 06:58:44;;;;;;;6.30;3.17;;;17.10;99.90;;;18.01;100.00;97702.19;5032621;28;20457;-81
2021/07/26 07:01:16;;;;;;;6.23;3.20;;;17.20;99.90;;;18.07;100.00;97701.22;5033323;28;20441;-82
2021/07/26 07:03:46;;;;;;;3.97;3.10;;;17.30;99.90;;;18.12;100.00;97695.97;5026605;28;20459;-82
2021/07/26 07:06:17;;;;;;;4.87;3.27;;;17.30;99.90;;;18.18;100.00;97702.16;5027795;28;20833;-82
2021/07/26 07:08:46;;;;;;;6.20;3.90;;;17.40;99.90;;;18.21;100.00;97702.47;5031732;28;21018;-82
2021/07/26 07:11:16;;;;;;;10.97;4.53;;;17.40;99.90;;;18.28;100.00;97707.59;5032264;28;20566;-82
2021/07/26 07:13:47;;;;;;;5.57;4.23;;;17.50;99.90;;;18.33;100.00;97711.09;5015936;28;20928;-82
2021/07/26 07:16:20;;;;;;;6.80;3.93;;;17.50;99.90;;;18.39;100.00;97714.63;5032776;28;20480;-82
2021/07/26 07:18:50;;;;;;;6.83;3.93;;;17.60;99.90;;;18.46;100.00;97712.59;5031669;28;20508;-81
2021/07/26 07:21:20;;;;;;;8.23;4.90;;;17.70;99.90;;;18.50;100.00;97716.38;5023662;28;20455;-82
2021/07/26 07:23:51;;;;;;;6.57;4.37;;;17.60;99.90;;;18.53;100.00;97714.03;5031089;28;20520;-82
2021/07/26 07:26:21;;;;;;;9.90;4.57;;;17.70;99.90;;;18.58;100.00;97714.09;5032547;28;20443;-82
2021/07/26 07:28:50;;;;;;;6.10;3.87;;;17.80;99.90;;;18.65;100.00;97723.72;5030926;28;20458;-82
2021/07/26 07:31:24;;;;;;;9.80;4.80;;;17.90;99.90;;;18.70;100.00;97726.44;5032260;28;20457;-82
2021/07/26 07:33:56;;;;;;;7.90;4.10;;;17.90;99.90;;;18.79;100.00;97719.63;5021087;28;20505;-82
2021/07/26 07:36:26;;;;;;;7.90;4.57;;;18.10;99.90;;;18.82;100.00;97719.94;5045724;28;20467;-82
2021/07/26 07:38:56;;;;;;;14.77;4.40;;;18.10;99.90;;;18.84;100.00;97727.66;5028065;28;20445;-82
2021/07/26 07:41:27;;;;;;;9.07;4.17;;;18.10;99.90;;;18.90;100.00;97724.03;5031666;28;20893;-82
2021/07/26 07:43:56;;;;;;;6.83;3.50;;;18.20;99.90;;;18.96;100.00;97723.81;5023409;28;20450;-82
2021/07/26 07:46:26;;;;;;;6.53;4.40;;;18.20;99.90;;;19.02;100.00;97733.44;5032086;28;20482;-82
2021/07/26 07:48:55;;;;;;;10.20;4.40;;;18.30;99.90;;;19.07;100.00;97728.19;5029481;28;20493;-82
2021/07/26 07:51:24;;;;;;;10.80;4.33;;;18.30;99.90;;;19.09;100.00;97736.69;5028786;28;20490;-83
2021/07/26 07:53:54;;;;;;;8.13;5.33;;;18.40;99.90;;;19.13;100.00;97739.63;5031495;28;20604;-82
2021/07/26 07:56:22;;;;;;;5.30;4.37;;;18.40;99.90;;;19.23;100.00;97739.75;5031481;28;20540;-82
2021/07/26 07:58:52;;;;;;;6.27;3.80;;;18.50;99.90;;;19.28;100.00;97739.81;5032244;28;20508;-82
2021/07/26 08:01:29;;;;;;;6.90;4.10;;;18.60;99.90;;;19.32;100.00;97742.75;5031412;28;21154;-81
2021/07/26 08:03:59;;;;;;;6.00;3.40;;;18.60;99.90;;;19.42;100.00;97743.69;5031400;28;20507;-82
2021/07/26 08:06:28;;;;;;;7.47;3.60;;;18.70;99.90;;;19.45;100.00;97737.88;5030973;28;20446;-82
2021/07/26 08:08:56;;;;;;;4.33;3.77;;;18.70;99.90;;;19.51;100.00;97741.38;5033605;28;20454;-82
2021/07/26 08:11:25;;;;;;;4.23;3.40;;;18.90;99.90;;;19.52;100.00;97741.13;5026750;28;20443;-82
2021/07/26 08:13:53;;;;;;;6.40;3.17;;;18.80;99.90;;;19.61;100.00;97738.03;5028050;28;21010;-82
2021/07/26 08:16:23;;;;;;;4.87;3.30;;;18.90;99.90;;;19.68;100.00;97739.41;5031673;28;20478;-82
2021/07/26 08:19:01;;;;;;;10.60;3.77;;;19.00;99.90;;;19.72;100.00;97737.03;5032264;28;20452;-81
2021/07/26 08:21:29;;;;;;;5.80;3.50;;;19.00;99.90;;;19.80;100.00;97741.91;5031240;28;20867;-82
2021/07/26 08:24:00;;;;;;;5.17;3.13;;;19.20;99.90;;;19.82;100.00;97745.13;5023176;28;20485;-82
2021/07/26 08:26:29;;;;;;;4.40;3.17;;;19.10;99.90;;;19.80;100.00;97745.34;5031972;28;20458;-82
2021/07/26 08:28:57;;;;;;;3.40;3.10;;;19.00;99.90;;;19.85;100.00;97739.28;5030051;28;20505;-82
2021/07/26 08:31:26;;;;;;;4.90;3.43;;;19.10;99.90;;;19.92;100.00;97756.59;5030798;28;20958;-82
2021/07/26 08:33:54;;;;;;;4.83;3.20;;;19.20;99.90;;;20.00;100.00;97752.66;5030351;28;20489;-82
2021/07/26 08:36:24;;;;;;;4.63;3.20;;;19.30;99.90;;;19.95;100.00;97747.34;5031502;28;20450;-82
2021/07/26 08:38:53;;;;;;;6.37;4.30;;;19.20;99.90;;;20.01;100.00;97747.13;5015326;28;20813;-82
2021/07/26 08:41:21;;;;;;;6.47;4.13;;;19.20;99.90;;;20.09;100.00;97746.66;5026612;28;20782;-82
2021/07/26 08:43:50;;;;;;;10.03;3.80;;;19.30;99.90;;;20.13;100.00;97749.59;5032309;28;20453;-82
2021/07/26 08:46:20;;;;;;;4.90;3.40;;;19.30;99.90;;;20.18;100.00;97746.16;5024948;28;20524;-82
2021/07/26 08:48:50;;;;;;;7.90;2.83;;;19.50;99.90;;;20.26;100.00;97746.50;5031034;28;21022;-82
2021/07/26 08:51:22;;;;;;;6.60;3.70;;;19.50;99.90;;;20.37;100.00;97742.06;5026812;28;20446;-82
2021/07/26 08:53:52;;;;;;;4.80;3.33;;;19.60;99.90;;;20.44;100.00;97743.41;5031195;28;20446;-82
2021/07/26 08:56:21;;;;;;;9.30;3.50;;;19.70;99.90;;;20.49;100.00;97748.78;5031127;28;20516;-82
2021/07/26 08:58:51;;;;;;;3.60;2.73;;;19.70;99.90;;;20.58;100.00;97747.22;5031130;28;20469;-82
2021/07/26 09:01:20;;;;;;;12.60;3.83;;;19.90;99.90;;;20.54;100.00;97754.13;5030101;28;20995;-82
2021/07/26 09:03:53;;;;;;;7.10;3.60;;;19.80;99.90;;;20.58;100.00;97752.53;5030186;28;20867;-82
2021/07/26 09:06:21;;;;;;;8.03;3.00;;;19.80;99.90;;;20.56;100.00;97767.16;5028308;28;20458;-82
2021/07/26 09:08:54;;;;;;;5.63;3.23;;;19.80;99.90;;;20.61;100.00;97767.19;5030548;28;20461;-82
2021/07/26 09:11:22;;;;;;;4.23;3.33;;;19.80;99.90;;;20.66;100.00;97761.06;5016468;28;20509;-82
2021/07/26 09:13:51;;;;;;;6.80;3.50;;;19.80;99.90;;;20.77;100.00;97762.72;5026855;28;20450;-82
2021/07/26 09:16:22;;;;;;;4.20;3.33;;;20.00;99.90;;;20.78;100.00;97765.13;5030487;28;20485;-82
2021/07/26 09:19:02;;;;;;;4.47;3.17;;;20.20;99.90;;;20.81;100.00;97763.81;5030647;28;20536;-82
2021/07/26 09:21:51;;;;;;;4.63;3.60;;;20.10;99.90;;;20.86;100.00;97761.19;5030919;28;20518;-82
2021/07/26 09:24:26;;;;;;;4.27;2.97;;;20.10;99.90;;;20.84;100.00;97764.09;5020175;28;20488;-82
2021/07/26 09:27:19;;;;;;;5.87;3.27;;;20.00;99.90;;;20.94;100.00;97763.34;5030334;28;20457;-82
2021/07/26 09:30:19;;;;;;;6.43;3.33;;;20.20;99.90;;;21.01;100.00;97769.22;5033774;28;20464;-82
2021/07/26 09:32:53;;;;;;;7.83;3.03;;;20.30;99.90;;;21.09;100.00;97766.06;5031538;28;20966;-82
2021/07/26 09:35:33;;;;;;;4.90;3.33;;;20.40;99.90;;;21.16;100.00;97758.66;5033665;28;20481;-83
2021/07/26 09:38:16;;;;;;;5.73;2.60;;;20.40;99.90;;;21.23;100.00;97763.72;5031948;28;20468;-82
2021/07/26 09:40:50;;;;;;;4.70;3.13;;;20.50;99.90;;;21.36;100.00;97760.56;5023693;28;20461;-82
2021/07/26 09:43:26;;;;;;;8.77;3.07;;;20.70;99.90;;;21.38;100.00;97764.56;5032598;28;20946;-82
2021/07/26 09:45:59;;;;;;;3.70;2.73;;;20.70;99.90;;;21.36;100.00;97764.03;5030973;28;20461;-81
2021/07/26 09:48:32;;;;;;;7.73;3.00;;;20.60;99.90;;;21.37;100.00;97765.63;5010992;28;20470;-82
2021/07/26 09:51:21;;;;;;;3.73;3.17;;;20.50;99.90;;;21.41;100.00;97764.06;5010772;28;20438;-82
2021/07/26 09:53:58;;;;;;;3.77;3.23;;;20.60;99.90;;;21.37;100.00;97767.50;5009958;28;20505;-82
2021/07/26 09:56:34;;;;;;;3.87;3.23;;;20.50;99.90;;;21.42;100.00;97767.50;5010233;28;20498;-82
2021/07/26 09:59:23;;;;;;;4.00;2.90;;;20.60;99.90;;;21.38;100.00;97777.09;5011110;28;20474;-82
2021/07/26 10:01:56;;;;;;;4.20;3.40;;;20.60;99.90;;;21.40;100.00;97770.44;5003483;28;20490;-82
2021/07/26 10:04:30;;;;;;;6.37;3.40;;;20.70;99.90;;;21.42;100.00;97770.97;5020718;28;20950;-82
2021/07/26 10:07:01;;;;;;;6.80;3.70;;;20.60;99.90;;;21.50;100.00;97765.13;5013602;28;20459;-82
2021/07/26 10:09:31;;;;;;;5.77;3.00;;;20.70;99.90;;;21.59;100.00;97758.22;5016530;28;20822;-82
2021/07/26 10:12:06;;;;;;;5.70;3.40;;;20.80;99.90;;;21.64;100.00;97759.28;5009306;28;20455;-82
2021/07/26 10:14:37;;;;;;;3.20;2.53;;;20.80;99.90;;;21.61;100.00;97762.47;4999989;28;20470;-82
2021/07/26 10:17:10;;;;;;;7.10;4.13;;;20.80;99.90;;;21.49;100.00;97760.06;5010631;28;20843;-82
2021/07/26 10:19:38;;;;;;;3.80;2.90;;;20.60;99.90;;;21.53;100.00;97761.94;5013421;28;20501;-82
2021/07/26 10:22:12;;;;;;;7.43;3.10;;;20.70;99.90;;;21.53;100.00;97759.28;5013867;28;20450;-82
2021/07/26 10:24:48;;;;;;;6.50;3.50;;;20.70;99.90;;;21.62;100.00;97761.41;5014494;28;20496;-82
2021/07/26 10:27:23;;;;;;;3.80;3.23;;;20.80;99.90;;;21.56;100.00;97755.28;5013316;28;20922;-82